createdAt,value
2018-10-19T00:00:17.460Z,56.20
2018-10-19T00:02:44.668Z,53.90
2018-10-19T00:05:12.005Z,53.97
2018-10-19T00:07:39.160Z,53.60
2018-10-19T00:10:07.463Z,59.03
2018-10-19T00:12:34.749Z,55.43
2018-10-19T00:15:02.060Z,54.47
2018-10-19T00:17:29.322Z,52.13
2018-10-19T00:19:56.552Z,52.10
2018-10-19T00:22:23.765Z,55.17
2018-10-19T00:24:50.990Z,57.20
2018-10-19T00:27:18.242Z,60.98
2018-10-19T00:29:45.497Z,69.27
2018-10-19T00:32:12.749Z,62.90
2018-10-19T00:34:39.992Z,56.85
2018-10-19T00:37:07.212Z,58.30
2018-10-19T00:39:34.432Z,61.20
2018-10-19T00:42:01.682Z,55.50
2018-10-19T00:44:28.917Z,56.10
2018-10-19T00:46:56.185Z,54.50
2018-10-19T00:49:23.384Z,56.37
2018-10-19T00:51:50.609Z,57.17
2018-10-19T00:54:17.846Z,56.92
2018-10-19T00:56:45.076Z,55.00
2018-10-19T00:59:12.414Z,57.05
2018-10-19T01:01:39.548Z,62.55
2018-10-19T01:04:06.909Z,67.70
2018-10-19T01:06:34.146Z,60.53
2018-10-19T01:09:01.472Z,57.30
2018-10-19T01:11:28.643Z,57.25
2018-10-19T01:13:55.880Z,57.27
2018-10-19T01:16:23.115Z,56.55
2018-10-19T01:18:50.364Z,55.73
2018-10-19T01:21:17.613Z,53.63
2018-10-19T01:23:44.843Z,52.55
2018-10-19T01:26:12.085Z,54.50
2018-10-19T01:28:39.324Z,50.33
2018-10-19T01:31:07.576Z,51.53
2018-10-19T01:33:34.878Z,55.90
2018-10-19T01:36:02.093Z,56.50
2018-10-19T01:38:29.294Z,53.35
2018-10-19T01:40:56.555Z,50.12
2018-10-19T01:43:24.912Z,51.15
2018-10-19T01:45:56.837Z,55.83
2018-10-19T01:48:24.729Z,54.70
2018-10-19T01:50:52.030Z,56.75
2018-10-19T01:53:19.389Z,56.77
2018-10-19T01:55:46.748Z,58.02
2018-10-19T01:58:14.352Z,57.83
2018-10-19T02:00:41.592Z,55.25
2018-10-19T02:03:09.060Z,55.15
2018-10-19T02:05:36.617Z,54.18
2018-10-19T02:08:04.157Z,54.25
2018-10-19T02:10:31.407Z,52.15
2018-10-19T02:12:58.637Z,54.85
2018-10-19T02:15:26.852Z,55.15
2018-10-19T02:17:54.076Z,52.85
2018-10-19T02:20:21.301Z,50.05
2018-10-19T02:22:48.532Z,54.53
2018-10-19T02:25:15.764Z,54.25
2018-10-19T02:27:44.053Z,55.60
2018-10-19T02:30:11.276Z,53.50
2018-10-19T02:32:38.506Z,57.65
2018-10-19T02:35:05.822Z,51.98
2018-10-19T02:37:33.152Z,51.45
2018-10-19T02:40:00.369Z,50.75
2018-10-19T02:42:27.626Z,48.68
2018-10-19T02:44:54.869Z,45.70
2018-10-19T02:47:22.093Z,47.43
2018-10-19T02:49:49.392Z,49.60
2018-10-19T02:52:16.640Z,49.30
2018-10-19T02:54:43.872Z,46.08
2018-10-19T02:57:11.149Z,49.30
2018-10-19T02:59:38.345Z,49.42
2018-10-19T03:02:05.782Z,50.60
2018-10-19T03:04:33.099Z,56.40
2018-10-19T03:07:00.325Z,51.45
2018-10-19T03:09:27.549Z,49.33
2018-10-19T03:11:54.770Z,48.17
2018-10-19T03:14:21.988Z,52.15
2018-10-19T03:16:49.206Z,52.27
2018-10-19T03:19:16.452Z,50.95
2018-10-19T03:21:43.922Z,55.80
2018-10-19T03:24:12.163Z,54.93
2018-10-19T03:26:39.384Z,52.40
2018-10-19T03:29:06.680Z,51.13
2018-10-19T03:31:33.841Z,46.77
2018-10-19T03:34:01.069Z,48.02
2018-10-19T03:36:28.296Z,46.83
2018-10-19T03:38:55.557Z,46.98
2018-10-19T03:41:22.788Z,46.55
2018-10-19T03:43:50.167Z,44.20
2018-10-19T03:46:17.408Z,43.13
2018-10-19T03:48:45.530Z,44.63
2018-10-19T03:51:12.828Z,48.28
2018-10-19T03:53:40.035Z,49.98
2018-10-19T03:56:07.294Z,46.73
2018-10-19T03:58:34.517Z,49.30
2018-10-19T04:01:01.743Z,46.25
2018-10-19T04:03:29.048Z,45.70
2018-10-19T04:05:57.213Z,49.30
2018-10-19T04:08:24.433Z,48.80
2018-10-19T04:10:51.662Z,45.83
2018-10-19T04:13:19.900Z,44.45
2018-10-19T04:15:48.113Z,44.53
2018-10-19T04:18:15.365Z,47.43
2018-10-19T04:20:42.592Z,43.92
2018-10-19T04:23:09.884Z,49.33
2018-10-19T04:25:37.994Z,48.30
2018-10-19T04:28:05.316Z,50.83
2018-10-19T04:30:32.908Z,56.20
2018-10-19T04:33:00.623Z,62.83
2018-10-19T04:35:28.032Z,104.43
2018-10-19T04:37:55.261Z,103.75
2018-10-19T04:40:22.945Z,103.42
2018-10-19T04:42:50.302Z,69.90
2018-10-19T04:45:20.778Z,101.02
2018-10-19T04:47:48.053Z,66.02
2018-10-19T04:50:15.441Z,88.33
2018-10-19T04:52:42.688Z,81.70
2018-10-19T04:55:14.021Z,72.12
2018-10-19T04:57:41.261Z,84.85
2018-10-19T05:00:08.548Z,78.65
2018-10-19T05:02:36.143Z,95.05
2018-10-19T05:05:04.090Z,100.78
2018-10-19T05:07:31.515Z,89.13
2018-10-19T05:09:58.724Z,89.65
2018-10-19T05:12:26.045Z,69.20
2018-10-19T05:14:53.201Z,65.57
2018-10-19T05:17:20.436Z,61.35
2018-10-19T05:19:47.724Z,51.80
2018-10-19T05:22:14.997Z,52.75
2018-10-19T05:24:42.307Z,71.97
2018-10-19T05:27:09.967Z,47.78
2018-10-19T05:29:37.237Z,53.58
2018-10-19T05:32:04.550Z,43.80
2018-10-19T05:34:31.732Z,53.73
2018-10-19T05:36:58.940Z,57.60
2018-10-19T05:39:26.169Z,52.43
2018-10-19T05:41:53.404Z,59.23
2018-10-19T05:44:20.613Z,50.55
2018-10-19T05:46:47.832Z,41.80
2018-10-19T05:49:15.044Z,37.75
2018-10-19T05:51:42.301Z,40.43
2018-10-19T05:54:09.533Z,40.20
2018-10-19T05:56:36.765Z,65.72
2018-10-19T05:59:04.293Z,56.63
2018-10-19T06:01:31.488Z,58.17
2018-10-19T06:03:58.734Z,49.70
2018-10-19T06:06:25.948Z,46.53
2018-10-19T06:08:53.177Z,68.95
2018-10-19T06:11:20.532Z,57.58
2018-10-19T06:13:47.801Z,51.42
2018-10-19T06:16:14.992Z,57.48
2018-10-19T06:18:42.204Z,59.58
2018-10-19T06:21:09.609Z,47.62
2018-10-19T06:23:36.776Z,51.92
2018-10-19T06:26:04.476Z,52.45
2018-10-19T06:28:31.795Z,46.75
2018-10-19T06:30:59.048Z,53.90
2018-10-19T06:33:26.268Z,51.25
2018-10-19T06:35:53.495Z,90.15
2018-10-19T06:38:20.745Z,65.25
2018-10-19T06:40:48.045Z,91.97
2018-10-19T06:43:15.207Z,71.97
2018-10-19T06:45:42.412Z,76.53
2018-10-19T06:48:09.641Z,64.53
2018-10-19T06:50:36.864Z,69.90
2018-10-19T06:53:04.181Z,60.55
2018-10-19T06:55:31.355Z,57.27
2018-10-19T06:57:58.573Z,59.70
2018-10-19T07:00:25.788Z,80.42
2018-10-19T07:02:53.056Z,51.40
2018-10-19T07:05:20.308Z,50.03
2018-10-19T07:07:47.548Z,49.75
2018-10-19T07:10:14.789Z,58.48
2018-10-19T07:12:42.013Z,66.07
2018-10-19T07:15:10.717Z,47.30
2018-10-19T07:17:38.164Z,43.28
2018-10-19T07:20:06.373Z,42.40
2018-10-19T07:22:33.577Z,40.83
2018-10-19T07:25:00.962Z,38.80
2018-10-19T07:27:28.186Z,41.13
2018-10-19T07:29:55.415Z,40.87
2018-10-19T07:32:22.636Z,42.77
2018-10-19T07:34:49.882Z,43.80
2018-10-19T07:37:17.113Z,42.87
2018-10-19T07:39:44.324Z,39.67
2018-10-19T07:42:11.643Z,40.03
2018-10-19T07:44:38.795Z,38.30
2018-10-19T07:47:06.040Z,39.80
2018-10-19T07:49:33.257Z,37.67
2018-10-19T07:52:00.485Z,40.80
2018-10-19T07:54:27.848Z,37.30
2018-10-19T07:56:55.029Z,34.90
2018-10-19T07:59:22.262Z,38.17
2018-10-19T08:01:49.480Z,39.47
2018-10-19T08:04:16.706Z,38.17
2018-10-19T08:06:43.933Z,36.87
2018-10-19T08:09:11.396Z,36.23
2018-10-19T08:11:38.723Z,36.30
2018-10-19T08:14:06.136Z,36.63
2018-10-19T08:16:33.331Z,34.63
2018-10-19T08:19:00.553Z,34.90
2018-10-19T08:21:28.140Z,34.90
2018-10-19T08:23:55.377Z,36.87
2018-10-19T08:26:22.771Z,36.43
2018-10-19T08:28:50.018Z,37.90
2018-10-19T08:31:17.245Z,36.97
2018-10-19T08:33:44.477Z,36.17
2018-10-19T08:36:11.703Z,36.80
2018-10-19T08:38:38.922Z,36.63
2018-10-19T08:41:06.259Z,35.80
2018-10-19T08:43:33.398Z,36.73
2018-10-19T08:46:06.254Z,34.50
2018-10-19T08:48:33.471Z,37.90
2018-10-19T08:51:00.736Z,37.77
2018-10-19T08:53:27.994Z,41.00
2018-10-19T08:55:55.230Z,40.27
2018-10-19T08:58:22.492Z,38.77
2018-10-19T09:00:49.669Z,35.77
2018-10-19T09:03:16.965Z,38.30
2018-10-19T09:05:44.103Z,35.43
2018-10-19T09:08:11.316Z,38.63
2018-10-19T09:10:38.571Z,36.63
2018-10-19T09:13:06.010Z,37.13
2018-10-19T09:15:33.229Z,35.57
2018-10-19T09:18:00.448Z,36.20
2018-10-19T09:20:27.674Z,38.37
2018-10-19T09:22:54.921Z,35.20
2018-10-19T09:25:22.125Z,35.20
2018-10-19T09:27:49.358Z,36.53
2018-10-19T09:30:16.574Z,37.87
2018-10-19T09:32:43.805Z,35.20
2018-10-19T09:35:11.105Z,33.87
2018-10-19T09:37:38.346Z,34.10
2018-10-19T09:40:05.800Z,34.20
2018-10-19T09:42:33.008Z,34.63
2018-10-19T09:45:00.259Z,37.10
2018-10-19T09:47:27.555Z,36.37
2018-10-19T09:49:54.736Z,35.50
2018-10-19T09:52:21.992Z,36.70
2018-10-19T09:54:49.232Z,34.50
2018-10-19T09:57:16.585Z,36.70
2018-10-19T09:59:43.722Z,34.30
2018-10-19T10:02:11.002Z,36.20
2018-10-19T10:04:38.181Z,36.07
2018-10-19T10:07:05.471Z,35.80
2018-10-19T10:09:32.644Z,37.60
2018-10-19T10:11:59.871Z,36.70
2018-10-19T10:14:27.086Z,35.43
2018-10-19T10:16:54.345Z,37.00
2018-10-19T10:19:21.573Z,37.33
2018-10-19T10:21:49.105Z,34.40
2018-10-19T10:24:16.376Z,35.73
2018-10-19T10:26:43.630Z,35.17
2018-10-19T10:29:10.951Z,37.07
2018-10-19T10:31:38.209Z,33.77
2018-10-19T10:34:05.488Z,32.70
2018-10-19T10:36:33.326Z,34.80
2018-10-19T10:39:00.743Z,36.50
2018-10-19T10:41:27.912Z,34.03
2018-10-19T10:43:56.116Z,36.00
2018-10-19T10:46:23.368Z,34.13
2018-10-19T10:48:50.576Z,35.70
2018-10-19T10:51:17.998Z,34.33
2018-10-19T10:53:45.215Z,35.23
2018-10-19T10:56:12.457Z,34.67
2018-10-19T10:58:40.040Z,35.57
2018-10-19T11:01:07.334Z,36.87
2018-10-19T11:03:34.702Z,37.23
2018-10-19T11:06:02.444Z,37.63
2018-10-19T11:08:29.663Z,36.93
2018-10-19T11:11:04.729Z,38.57
2018-10-19T11:13:31.952Z,36.50
2018-10-19T11:15:59.171Z,38.47
2018-10-19T11:18:26.397Z,37.77
2018-10-19T11:20:53.631Z,36.00
2018-10-19T11:23:20.848Z,41.93
2018-10-19T11:25:48.065Z,38.63
2018-10-19T11:28:15.346Z,42.73
2018-10-19T11:30:42.552Z,39.40
2018-10-19T11:33:09.761Z,39.53
2018-10-19T11:35:36.972Z,40.07
2018-10-19T11:38:04.694Z,39.87
2018-10-19T11:40:35.083Z,41.13
2018-10-19T11:43:02.395Z,42.70
2018-10-19T11:45:31.529Z,41.20
2018-10-19T11:47:58.756Z,37.93
2018-10-19T11:50:25.992Z,39.77
2018-10-19T11:52:53.216Z,38.17
2018-10-19T11:55:20.472Z,38.40
2018-10-19T11:57:48.500Z,41.50
2018-10-19T12:00:15.993Z,39.17
2018-10-19T12:02:43.316Z,38.70
2018-10-19T12:05:10.572Z,39.20
2018-10-19T12:07:38.238Z,39.73
2018-10-19T12:10:06.569Z,38.60
2018-10-19T12:12:33.752Z,37.47
2018-10-19T12:15:01.012Z,37.77
2018-10-19T12:17:28.235Z,37.47
2018-10-19T12:19:55.453Z,36.30
2018-10-19T12:22:22.668Z,35.50
2018-10-19T12:24:49.920Z,34.20
2018-10-19T12:27:17.248Z,33.07
2018-10-19T12:29:44.469Z,32.77
2018-10-19T12:32:12.703Z,35.60
2018-10-19T12:34:39.934Z,35.13
2018-10-19T12:37:08.536Z,35.80
2018-10-19T12:39:35.896Z,33.50
2018-10-19T12:42:03.127Z,33.17
2018-10-19T12:44:30.477Z,34.33
2018-10-19T12:47:09.252Z,35.30
2018-10-19T12:49:36.884Z,35.53
2018-10-19T12:52:04.284Z,36.83
2018-10-19T12:54:31.595Z,36.77
2018-10-19T12:56:58.841Z,34.30
2018-10-19T12:59:26.161Z,37.80
2018-10-19T13:01:53.376Z,38.60
2018-10-19T13:04:20.600Z,36.73
2018-10-19T13:06:47.820Z,38.07
2018-10-19T13:09:15.196Z,36.10
2018-10-19T13:11:42.272Z,38.50
2018-10-19T13:14:09.597Z,37.17
2018-10-19T13:16:36.840Z,40.17
2018-10-19T13:19:04.312Z,40.37
2018-10-19T13:21:31.492Z,37.80
2018-10-19T13:23:58.775Z,40.17
2018-10-19T13:26:27.005Z,39.90
2018-10-19T13:28:54.247Z,41.73
2018-10-19T13:31:22.511Z,41.97
2018-10-19T13:33:50.171Z,41.20
2018-10-19T13:36:17.388Z,44.47
2018-10-19T13:38:44.629Z,45.00
2018-10-19T13:41:11.852Z,44.80
2018-10-19T13:43:39.802Z,47.40
2018-10-19T13:46:07.013Z,47.27
2018-10-19T13:48:34.303Z,47.87
2018-10-19T13:51:01.565Z,47.63
2018-10-19T13:53:28.768Z,45.70
2018-10-19T13:55:56.015Z,46.27
2018-10-19T13:58:23.288Z,45.20
2018-10-19T14:00:50.497Z,47.23
2018-10-19T14:03:17.720Z,45.10
2018-10-19T14:05:45.122Z,45.90
2018-10-19T14:08:12.212Z,49.43
2018-10-19T14:10:39.428Z,48.07
2018-10-19T14:13:06.929Z,49.60
2018-10-19T14:15:34.137Z,46.17
2018-10-19T14:18:01.379Z,46.87
2018-10-19T14:20:28.609Z,47.17
2018-10-19T14:22:55.872Z,48.83
2018-10-19T14:25:23.053Z,47.67
2018-10-19T14:27:50.292Z,46.30
2018-10-19T14:30:18.008Z,43.93
2018-10-19T14:32:45.237Z,44.47
2018-10-19T14:35:13.330Z,46.17
2018-10-19T14:37:41.609Z,46.17
2018-10-19T14:40:10.934Z,48.67
2018-10-19T14:42:38.576Z,46.77
2018-10-19T14:45:06.395Z,47.53
2018-10-19T14:47:33.606Z,45.37
2018-10-19T14:50:00.808Z,45.40
2018-10-19T14:52:28.013Z,47.50
2018-10-19T14:54:55.216Z,44.90
2018-10-19T14:57:22.676Z,45.10
2018-10-19T14:59:49.893Z,47.47
2018-10-19T15:02:17.140Z,47.63
2018-10-19T15:04:44.345Z,45.70
2018-10-19T15:07:11.709Z,46.00
2018-10-19T15:09:39.101Z,44.20
2018-10-19T15:12:06.415Z,46.57
2018-10-19T15:14:34.543Z,44.57
2018-10-19T15:17:01.782Z,43.43
2018-10-19T15:19:29.014Z,44.10
2018-10-19T15:21:56.233Z,44.20
2018-10-19T15:24:23.490Z,43.40
2018-10-19T15:26:50.709Z,42.87
2018-10-19T15:29:17.986Z,43.40
2018-10-19T15:31:45.132Z,42.27
2018-10-19T15:34:12.427Z,40.80
2018-10-19T15:36:39.725Z,37.60
2018-10-19T15:39:09.330Z,41.90
2018-10-19T15:41:36.553Z,40.47
2018-10-19T15:44:04.118Z,42.40
2018-10-19T15:46:31.573Z,38.93
2018-10-19T15:48:58.771Z,41.40
2018-10-19T15:51:25.985Z,40.87
2018-10-19T15:53:54.238Z,42.07
2018-10-19T15:56:21.453Z,39.20
2018-10-19T15:58:49.823Z,44.60
2018-10-19T16:01:17.056Z,40.77
2018-10-19T16:03:44.305Z,40.93
2018-10-19T16:06:11.597Z,43.33
2018-10-19T16:08:38.861Z,43.93
2018-10-19T16:11:06.198Z,43.80
2018-10-19T16:13:33.381Z,44.13
2018-10-19T16:16:00.636Z,43.23
2018-10-19T16:18:27.872Z,43.03
2018-10-19T16:20:55.104Z,43.00
2018-10-19T16:23:22.317Z,45.27
2018-10-19T16:25:49.538Z,45.63
2018-10-19T16:28:16.812Z,46.20
2018-10-19T16:30:43.980Z,43.90
2018-10-19T16:33:11.296Z,40.03
2018-10-19T16:35:38.417Z,40.80
2018-10-19T16:38:05.645Z,41.47
2018-10-19T16:40:33.417Z,40.47
2018-10-19T16:43:00.641Z,40.87
2018-10-19T16:45:27.868Z,44.17
2018-10-19T16:47:55.106Z,43.30
2018-10-19T16:50:22.313Z,45.70
2018-10-19T16:52:49.561Z,45.93
2018-10-19T16:55:17.777Z,48.23
2018-10-19T16:57:44.992Z,53.87
2018-10-19T17:00:12.287Z,51.27
2018-10-19T17:02:39.441Z,53.37
2018-10-19T17:05:06.900Z,49.73
2018-10-19T17:07:34.116Z,48.13
2018-10-19T17:10:01.349Z,44.93
2018-10-19T17:12:28.585Z,44.07
2018-10-19T17:14:55.859Z,46.20
2018-10-19T17:17:23.041Z,46.73
2018-10-19T17:19:50.284Z,50.90
2018-10-19T17:22:17.545Z,47.83
2018-10-19T17:24:44.764Z,51.20
2018-10-19T17:27:12.021Z,49.90
2018-10-19T17:29:39.251Z,54.93
2018-10-19T17:32:06.528Z,54.27
2018-10-19T17:34:33.768Z,53.00
2018-10-19T17:37:01.018Z,53.73
2018-10-19T17:39:28.238Z,53.60
2018-10-19T17:41:55.486Z,54.30
2018-10-19T17:44:22.672Z,56.50
2018-10-19T17:46:49.947Z,57.43
2018-10-19T17:49:17.289Z,54.50
2018-10-19T17:51:44.393Z,60.50
2018-10-19T17:54:11.756Z,55.30
2018-10-19T17:56:38.873Z,62.23
2018-10-19T17:59:06.120Z,55.83
2018-10-19T18:01:33.504Z,55.40
2018-10-19T18:04:00.847Z,56.70
2018-10-19T18:06:28.071Z,56.40
2018-10-19T18:08:55.376Z,56.50
2018-10-19T18:11:22.596Z,57.80
2018-10-19T18:13:49.812Z,57.67
2018-10-19T18:16:17.045Z,58.47
2018-10-19T18:18:44.265Z,60.60
2018-10-19T18:21:11.592Z,65.63
2018-10-19T18:23:38.803Z,60.20
2018-10-19T18:26:06.163Z,66.97
2018-10-19T18:28:33.461Z,58.40
2018-10-19T18:31:00.774Z,64.73
2018-10-19T18:33:27.960Z,70.70
2018-10-19T18:35:55.191Z,77.63
2018-10-19T18:38:23.497Z,57.50
2018-10-19T18:40:50.741Z,60.67
2018-10-19T18:43:17.962Z,65.90
2018-10-19T18:45:45.193Z,60.27
2018-10-19T18:48:12.424Z,61.00
2018-10-19T18:50:39.693Z,61.00
2018-10-19T18:53:07.022Z,72.60
2018-10-19T18:55:34.883Z,67.55
2018-10-19T18:58:02.130Z,72.40
2018-10-19T19:00:29.368Z,72.05
2018-10-19T19:02:56.596Z,72.67
2018-10-19T19:05:23.824Z,71.77
2018-10-19T19:07:52.082Z,73.43
2018-10-19T19:10:19.617Z,77.17
2018-10-19T19:12:46.970Z,84.27
2018-10-19T19:15:14.184Z,82.50
2018-10-19T19:17:41.397Z,84.10
2018-10-19T19:20:14.664Z,85.07
2018-10-19T19:22:42.245Z,78.27
2018-10-19T19:25:16.333Z,74.30
2018-10-19T19:27:43.587Z,71.03
2018-10-19T19:30:10.859Z,93.70
2018-10-19T19:32:42.668Z,85.77
2018-10-19T19:35:10.001Z,79.67
2018-10-19T19:37:37.162Z,74.60
2018-10-19T19:40:04.984Z,79.40
2018-10-19T19:42:38.176Z,86.80
2018-10-19T19:45:05.692Z,63.70
2018-10-19T19:47:38.755Z,54.27
2018-10-19T19:50:06.104Z,55.57
2018-10-19T19:52:33.492Z,58.43
2018-10-19T19:55:00.700Z,69.10
2018-10-19T19:57:27.920Z,78.47
2018-10-19T19:59:55.148Z,88.93
2018-10-19T20:02:22.475Z,108.70
2018-10-19T20:04:49.908Z,82.57
2018-10-19T20:07:17.142Z,66.00
2018-10-19T20:09:44.516Z,72.70
2018-10-19T20:12:11.740Z,73.60
2018-10-19T20:14:38.965Z,76.90
2018-10-19T20:17:06.194Z,83.33
2018-10-19T20:19:34.448Z,86.55
2018-10-19T20:22:01.700Z,85.40
2018-10-19T20:24:28.904Z,87.37
2018-10-19T20:26:56.135Z,82.82
2018-10-19T20:29:23.359Z,81.70
2018-10-19T20:31:50.596Z,77.10
2018-10-19T20:34:17.832Z,83.80
2018-10-19T20:36:45.058Z,84.83
2018-10-19T20:39:12.473Z,89.87
2018-10-19T20:41:39.798Z,88.07
2018-10-19T20:44:07.243Z,88.07
2018-10-19T20:46:34.412Z,88.53
2018-10-19T20:49:01.850Z,92.77
2018-10-19T20:51:29.084Z,94.67
2018-10-19T20:53:56.317Z,87.17
2018-10-19T20:56:23.541Z,91.07
2018-10-19T20:58:50.768Z,91.78
2018-10-19T21:01:17.980Z,89.97
2018-10-19T21:03:45.185Z,90.97
2018-10-19T21:06:12.415Z,95.70
2018-10-19T21:08:39.637Z,91.25
2018-10-19T21:11:06.980Z,87.92
2018-10-19T21:13:34.189Z,85.12
2018-10-19T21:16:01.342Z,78.90
2018-10-19T21:18:28.563Z,84.58
2018-10-19T21:20:55.788Z,90.17
2018-10-19T21:23:23.012Z,91.13
2018-10-19T21:25:50.228Z,94.90
2018-10-19T21:28:17.462Z,95.83
2018-10-19T21:30:44.677Z,92.82
2018-10-19T21:33:11.899Z,94.17
2018-10-19T21:35:39.155Z,88.67
2018-10-19T21:38:06.394Z,93.40
2018-10-19T21:40:33.642Z,94.37
2018-10-19T21:43:00.862Z,95.80
2018-10-19T21:45:28.093Z,92.62
2018-10-19T21:47:55.300Z,96.93
2018-10-19T21:50:22.902Z,94.47
2018-10-19T21:52:51.276Z,98.03
2018-10-19T21:55:18.485Z,90.97
2018-10-19T21:57:46.064Z,88.07
2018-10-19T22:00:13.301Z,89.07
2018-10-19T22:02:40.593Z,86.97
2018-10-19T22:05:08.466Z,84.37
2018-10-19T22:07:35.654Z,75.60
2018-10-19T22:10:02.905Z,76.33
2018-10-19T22:12:30.116Z,76.50
2018-10-19T22:14:57.324Z,70.97
2018-10-19T22:17:24.555Z,74.57
2018-10-19T22:19:51.780Z,74.67
2018-10-19T22:22:18.991Z,73.13
2018-10-19T22:24:46.266Z,74.23
2018-10-19T22:27:13.528Z,77.10
2018-10-19T22:29:40.748Z,76.90
2018-10-19T22:32:07.969Z,75.93
2018-10-19T22:34:35.173Z,77.47
2018-10-19T22:37:02.503Z,75.20
2018-10-19T22:39:29.692Z,72.03
2018-10-19T22:41:56.915Z,82.80
2018-10-19T22:44:24.140Z,84.47
2018-10-19T22:46:51.373Z,80.55
2018-10-19T22:49:18.580Z,76.17
2018-10-19T22:51:45.809Z,77.17
2018-10-19T22:54:13.026Z,78.47
2018-10-19T22:56:40.293Z,72.97
2018-10-19T22:59:07.531Z,70.07
2018-10-19T23:01:34.786Z,76.50
2018-10-19T23:04:02.061Z,71.97
2018-10-19T23:06:29.555Z,72.62
2018-10-19T23:08:57.246Z,74.07
2018-10-19T23:11:24.582Z,72.10
2018-10-19T23:13:51.856Z,72.10
2018-10-19T23:16:19.212Z,73.00
2018-10-19T23:18:46.525Z,75.15
2018-10-19T23:21:14.622Z,79.07
2018-10-19T23:23:41.901Z,74.32
2018-10-19T23:26:09.605Z,74.37
2018-10-19T23:28:36.848Z,69.67
2018-10-19T23:31:04.320Z,71.93
2018-10-19T23:33:31.669Z,72.60
2018-10-19T23:35:58.916Z,71.60
2018-10-19T23:38:26.718Z,70.23
2018-10-19T23:40:54.060Z,68.35
2018-10-19T23:43:21.288Z,66.50
2018-10-19T23:45:48.996Z,70.72
2018-10-19T23:48:18.435Z,68.05
2018-10-19T23:50:46.950Z,77.47
2018-10-19T23:53:14.242Z,67.15
2018-10-19T23:55:41.453Z,72.97
2018-10-19T23:58:08.825Z,78.02
